Nearby METAR Reports

 

CYYY - Mont Joli Airpor, Quebec, Canada
Distance from station: NE 44km
Mise à jour: 23/07/2024 10:00
nuageux
nuageux
 Wind from O
Vent: O 7 km/h
Température: 16°C
Point de rosée: 10°C
Humidité: 68%
Baromètre: 1020.7 hPa
Clouds: nuageux
Visibility: 48 km
Cloud details: Few Clouds 914 m
nuageux 3353 m
nuageux 7315 m
2024/07/23 14:00 CYYY 231400Z 27004KT 230V300 30SM FEW030 BKN110 BKN240 16/10 A3014 RMK CU1AC5CI2 CU TR SLP209
CWZS - Amqui, Quebec, Canada
Distance from station: E 94km
Mise à jour: 08/07/2019 18:00
NOT Current

 Wind from SSO
Vent: SSO 7 km/h
Température: 15°C
Point de rosée: 13°C
Humidité: 88%
2019/07/08 22:00 CWZS 082200Z AUTO 20004KT 15/13 RMK AO1 SLP080 T01490131 50015
 
CWQO - Ile Bicquette, Quebec, Canada
Distance from station: ONO 15km
Mise à jour: 23/07/2024 10:00

 Wind from S
Vent: S 7 km/h
Température: 12°C
Point de rosée: 9°C
Humidité: 82%
2024/07/23 14:00 CWQO 231400Z AUTO 19004KT 12/09 RMK AO1 T01170088
CWNH - Riviere Du Loup, Quebec, Canada
Distance from station: SO 90km
Mise à jour: 23/07/2024 10:00

 Wind from N
Vent: N 11 km/h
Température: 17°C
Point de rosée: 11°C
Humidité: 68%
2024/07/23 14:00 CWNH 231400Z AUTO 35006KT 17/11 RMK AO1 SLP209 T01740110 51008
 
CWAF - Ile Rouge(Maps), Quebec, Canada
Distance from station: OSO 70km
Mise à jour: 23/07/2024 10:00

 Wind from E
Vent: E 4 km/h
Température: 14°C
Point de rosée: 11°C
Humidité: 82%
2024/07/23 14:00 CWAF 231400Z AUTO 08002KT 14/11 RMK AO1 T01410106
CYBC - Baie Comeau Airp, Quebec, Canada
Distance from station: NNE 90km
Mise à jour: 23/07/2024 10:00
clair
clair
 Wind from ENE
Vent: ENE 13 km/h
Température: 19°C
Point de rosée: 10°C
Humidité: 56%
Baromètre: 1020.3 hPa
Clouds: clair
Visibility: 14 km
2024/07/23 14:00 CYBC 231400Z AUTO 06007KT 9SM CLR 19/10 A3013 RMK SLP206 DENSITY ALT 300FT